sensor_id;sensor_type;location;lat;lon;timestamp;pressure;altitude;pressure_sealevel;temperature;humidity
53916;BME280;39827;49.652;18.770;2023-05-10T00:00:09;74860.38;;;-149.71;65.41
53916;BME280;39827;49.652;18.770;2023-05-10T00:02:35;74848.31;;;-149.71;66.05
53916;BME280;39827;49.652;18.770;2023-05-10T00:05:01;74850.34;;;-149.71;66.44
53916;BME280;39827;49.652;18.770;2023-05-10T00:07:26;74842.28;;;-149.71;66.19
53916;BME280;39827;49.652;18.770;2023-05-10T00:09:52;74848.31;;;-149.71;66.75
53916;BME280;39827;49.652;18.770;2023-05-10T00:12:17;74862.38;;;-149.71;66.84
53916;BME280;39827;49.652;18.770;2023-05-10T00:14:43;74842.28;;;-149.71;66.48
53916;BME280;39827;49.652;18.770;2023-05-10T00:17:08;74848.31;;;-149.71;66.60
53916;BME280;39827;49.652;18.770;2023-05-10T00:19:34;74840.28;;;-149.71;66.06
53916;BME280;39827;49.652;18.770;2023-05-10T00:22:00;74828.22;;;-149.71;65.44
53916;BME280;39827;49.652;18.770;2023-05-10T00:24:25;74854.34;;;-149.71;66.59
53916;BME280;39827;49.652;18.770;2023-05-10T00:26:50;74842.28;;;-149.71;66.60
53916;BME280;39827;49.652;18.770;2023-05-10T00:29:16;74840.28;;;-149.71;66.27
53916;BME280;39827;49.652;18.770;2023-05-10T00:31:41;74870.41;;;-149.71;66.90
53916;BME280;39827;49.652;18.770;2023-05-10T00:34:07;74900.56;;;-149.71;67.41
53916;BME280;39827;49.652;18.770;2023-05-10T00:36:32;74866.41;;;-149.71;67.36
53916;BME280;39827;49.652;18.770;2023-05-10T00:38:58;74882.47;;;-149.71;67.48
53916;BME280;39827;49.652;18.770;2023-05-10T00:41:23;74874.44;;;-149.71;67.34
53916;BME280;39827;49.652;18.770;2023-05-10T00:43:48;74868.41;;;-149.71;67.79
53916;BME280;39827;49.652;18.770;2023-05-10T00:46:15;74878.47;;;-149.71;68.18
53916;BME280;39827;49.652;18.770;2023-05-10T00:48:41;74854.34;;;-149.71;67.88
53916;BME280;39827;49.652;18.770;2023-05-10T00:51:07;74862.38;;;-149.71;67.78
53916;BME280;39827;49.652;18.770;2023-05-10T00:53:34;74874.44;;;-149.71;68.32
53916;BME280;39827;49.652;18.770;2023-05-10T00:56:00;74884.50;;;-149.71;68.63
53916;BME280;39827;49.652;18.770;2023-05-10T00:58:27;74882.47;;;-149.71;68.67
53916;BME280;39827;49.652;18.770;2023-05-10T01:00:54;74864.41;;;-149.71;68.62
53916;BME280;39827;49.652;18.770;2023-05-10T01:03:21;74866.41;;;-149.71;68.46
53916;BME280;39827;49.652;18.770;2023-05-10T01:05:47;74888.50;;;-149.71;68.95
53916;BME280;39827;49.652;18.770;2023-05-10T01:08:12;74886.50;;;-149.71;68.97
53916;BME280;39827;49.652;18.770;2023-05-10T01:10:38;74892.53;;;-149.71;69.42
53916;BME280;39827;49.652;18.770;2023-05-10T01:13:03;74900.56;;;-149.71;69.97
53916;BME280;39827;49.652;18.770;2023-05-10T01:15:30;74898.56;;;-149.71;70.30
53916;BME280;39827;49.652;18.770;2023-05-10T01:17:56;74904.59;;;-149.71;70.32
53916;BME280;39827;49.652;18.770;2023-05-10T01:20:23;74904.59;;;-149.71;70.42
53916;BME280;39827;49.652;18.770;2023-05-10T01:32:31;74866.41;;;-149.71;69.26
53916;BME280;39827;49.652;18.770;2023-05-10T01:34:25;74862.38;;;-149.71;69.02
53916;BME280;39827;49.652;18.770;2023-05-10T01:37:07;74872.44;;;-149.71;69.72
53916;BME280;39827;49.652;18.770;2023-05-10T01:39:44;74870.41;;;-149.71;69.33
53916;BME280;39827;49.652;18.770;2023-05-10T01:42:16;74874.44;;;-149.71;69.52
53916;BME280;39827;49.652;18.770;2023-05-10T01:47:44;74890.53;;;-149.71;70.32
53916;BME280;39827;49.652;18.770;2023-05-10T01:50:18;74896.53;;;-149.71;70.73
53916;BME280;39827;49.652;18.770;2023-05-10T01:52:49;74894.53;;;-149.71;70.61
53916;BME280;39827;49.652;18.770;2023-05-10T01:55:17;74882.47;;;-149.71;70.46
53916;BME280;39827;49.652;18.770;2023-05-10T01:57:44;74892.53;;;-149.71;70.66
53916;BME280;39827;49.652;18.770;2023-05-10T02:00:12;74912.63;;;-149.71;71.12
53916;BME280;39827;49.652;18.770;2023-05-10T02:02:40;74888.50;;;-149.71;71.00
53916;BME280;39827;49.652;18.770;2023-05-10T02:05:09;74880.47;;;-149.71;70.59
53916;BME280;39827;49.652;18.770;2023-05-10T02:07:37;74864.41;;;-149.71;69.85
53916;BME280;39827;49.652;18.770;2023-05-10T02:10:05;74868.41;;;-149.71;70.55
53916;BME280;39827;49.652;18.770;2023-05-10T02:12:35;74868.41;;;-149.71;70.39
53916;BME280;39827;49.652;18.770;2023-05-10T02:15:02;74876.44;;;-149.71;70.46
53916;BME280;39827;49.652;18.770;2023-05-10T02:17:32;74876.44;;;-149.71;70.52
53916;BME280;39827;49.652;18.770;2023-05-10T02:19:58;74872.44;;;-149.71;70.62
53916;BME280;39827;49.652;18.770;2023-05-10T02:22:26;74878.47;;;-149.71;70.69
53916;BME280;39827;49.652;18.770;2023-05-10T02:24:54;74880.47;;;-149.71;70.46
53916;BME280;39827;49.652;18.770;2023-05-10T02:27:22;74888.50;;;-149.71;70.90
53916;BME280;39827;49.652;18.770;2023-05-10T02:29:49;74872.44;;;-149.71;70.53
53916;BME280;39827;49.652;18.770;2023-05-10T02:32:17;74878.47;;;-149.71;70.43
53916;BME280;39827;49.652;18.770;2023-05-10T02:34:44;74894.53;;;-149.71;70.86
53916;BME280;39827;49.652;18.770;2023-05-10T02:37:13;74888.50;;;-149.71;70.85
53916;BME280;39827;49.652;18.770;2023-05-10T02:39:39;74882.47;;;-149.71;70.56
53916;BME280;39827;49.652;18.770;2023-05-10T02:42:11;74894.53;;;-149.71;70.88
53916;BME280;39827;49.652;18.770;2023-05-10T02:44:41;74882.47;;;-149.71;71.05
53916;BME280;39827;49.652;18.770;2023-05-10T02:47:06;74890.53;;;-149.71;70.96
53916;BME280;39827;49.652;18.770;2023-05-10T02:49:32;74894.53;;;-149.71;70.91
53916;BME280;39827;49.652;18.770;2023-05-10T02:52:00;74890.53;;;-149.71;70.98
53916;BME280;39827;49.652;18.770;2023-05-10T02:54:31;74912.63;;;-149.71;71.61
53916;BME280;39827;49.652;18.770;2023-05-10T02:56:59;74908.59;;;-149.71;71.77
53916;BME280;39827;49.652;18.770;2023-05-10T02:59:26;74918.66;;;-149.71;72.03
53916;BME280;39827;49.652;18.770;2023-05-10T03:01:51;74908.59;;;-149.71;71.70
53916;BME280;39827;49.652;18.770;2023-05-10T03:04:17;74918.66;;;-149.71;71.53
53916;BME280;39827;49.652;18.770;2023-05-10T03:06:43;74924.69;;;-149.71;72.33
53916;BME280;39827;49.652;18.770;2023-05-10T03:09:09;74926.69;;;-149.71;72.77
53916;BME280;39827;49.652;18.770;2023-05-10T03:17:25;74912.63;;;-149.71;71.86
53916;BME280;39827;49.652;18.770;2023-05-10T03:19:55;74924.69;;;-149.71;72.61
53916;BME280;39827;49.652;18.770;2023-05-10T03:22:25;74914.63;;;-149.71;72.38
53916;BME280;39827;49.652;18.770;2023-05-10T03:24:53;74926.69;;;-149.71;72.98
53916;BME280;39827;49.652;18.770;2023-05-10T03:27:22;74910.63;;;-149.71;72.59
53916;BME280;39827;49.652;18.770;2023-05-10T03:29:48;74910.63;;;-149.71;72.74
53916;BME280;39827;49.652;18.770;2023-05-10T03:32:16;74914.63;;;-149.71;72.35
53916;BME280;39827;49.652;18.770;2023-05-10T03:34:42;74908.59;;;-149.71;72.35
53916;BME280;39827;49.652;18.770;2023-05-10T03:37:10;74898.56;;;-149.71;72.71
53916;BME280;39827;49.652;18.770;2023-05-10T03:39:36;74886.50;;;-149.71;72.36
53916;BME280;39827;49.652;18.770;2023-05-10T03:42:01;74896.53;;;-149.71;72.90
53916;BME280;39827;49.652;18.770;2023-05-10T03:44:27;74888.50;;;-149.71;72.44
53916;BME280;39827;49.652;18.770;2023-05-10T03:46:53;74884.50;;;-149.71;72.31
53916;BME280;39827;49.652;18.770;2023-05-10T03:49:18;74904.59;;;-149.71;73.03
53916;BME280;39827;49.652;18.770;2023-05-10T03:51:43;74866.41;;;-149.71;72.42
53916;BME280;39827;49.652;18.770;2023-05-10T03:54:09;74870.41;;;-149.71;72.24
53916;BME280;39827;49.652;18.770;2023-05-10T03:56:34;74850.34;;;-149.71;72.20
53916;BME280;39827;49.652;18.770;2023-05-10T03:59:00;74868.41;;;-149.71;72.41
53916;BME280;39827;49.652;18.770;2023-05-10T04:01:25;74846.31;;;-149.71;72.10
53916;BME280;39827;49.652;18.770;2023-05-10T04:03:51;74844.31;;;-149.71;72.05
53916;BME280;39827;49.652;18.770;2023-05-10T04:06:16;74846.31;;;-149.71;72.04
53916;BME280;39827;49.652;18.770;2023-05-10T04:08:41;74842.28;;;-149.71;71.75
53916;BME280;39827;49.652;18.770;2023-05-10T04:11:11;74822.19;;;-149.71;71.79
53916;BME280;39827;49.652;18.770;2023-05-10T04:13:37;74824.22;;;-149.71;71.65
53916;BME280;39827;49.652;18.770;2023-05-10T04:16:03;74820.19;;;-149.71;71.43
53916;BME280;39827;49.652;18.770;2023-05-10T04:18:29;74822.19;;;-149.71;71.66
53916;BME280;39827;49.652;18.770;2023-05-10T04:20:55;74814.16;;;-149.71;71.66
53916;BME280;39827;49.652;18.770;2023-05-10T04:23:20;74806.13;;;-149.71;71.72
53916;BME280;39827;49.652;18.770;2023-05-10T04:25:45;74800.09;;;-149.71;71.55
53916;BME280;39827;49.652;18.770;2023-05-10T04:28:11;74800.09;;;-149.71;71.41
53916;BME280;39827;49.652;18.770;2023-05-10T04:30:36;74806.13;;;-149.71;71.78
53916;BME280;39827;49.652;18.770;2023-05-10T04:33:02;74786.03;;;-149.71;71.79
53916;BME280;39827;49.652;18.770;2023-05-10T04:35:28;74794.06;;;-149.71;71.84
53916;BME280;39827;49.652;18.770;2023-05-10T04:37:54;74790.03;;;-149.71;71.98
53916;BME280;39827;49.652;18.770;2023-05-10T04:40:19;74784.03;;;-149.71;71.90
53916;BME280;39827;49.652;18.770;2023-05-10T04:42:45;74765.94;;;-149.71;71.62
53916;BME280;39827;49.652;18.770;2023-05-10T04:45:10;74767.94;;;-149.71;71.67
53916;BME280;39827;49.652;18.770;2023-05-10T04:47:36;74745.84;;;-149.71;71.33
53916;BME280;39827;49.652;18.770;2023-05-10T04:50:05;74743.84;;;-149.71;71.83
53916;BME280;39827;49.652;18.770;2023-05-10T04:52:30;74731.78;;;-149.71;72.33
53916;BME280;39827;49.652;18.770;2023-05-10T04:54:56;74675.50;;;-149.71;69.25
53916;BME280;39827;49.652;18.770;2023-05-10T04:57:21;74631.31;;;-149.71;66.71
53916;BME280;39827;49.652;18.770;2023-05-10T04:59:47;74617.25;;;-149.71;67.80
53916;BME280;39827;49.652;18.770;2023-05-10T05:02:12;74536.88;;;-149.71;63.01
53916;BME280;39827;49.652;18.770;2023-05-10T05:04:38;74478.59;;;-149.71;59.87
53916;BME280;39827;49.652;18.770;2023-05-10T05:07:03;74396.22;;;-149.71;58.94
53916;BME280;39827;49.652;18.770;2023-05-10T05:09:28;74323.88;;;-149.71;54.44
53916;BME280;39827;49.652;18.770;2023-05-10T05:11:54;74259.59;;;-149.71;53.15
53916;BME280;39827;49.652;18.770;2023-05-10T05:14:19;74187.28;;;-149.71;49.91
53916;BME280;39827;49.652;18.770;2023-05-10T05:16:46;74110.94;;;-149.71;47.72
53916;BME280;39827;49.652;18.770;2023-05-10T05:19:11;74060.69;;;-149.71;48.39
53916;BME280;39827;49.652;18.770;2023-05-10T05:21:37;74004.44;;;-149.71;46.49
53916;BME280;39827;49.652;18.770;2023-05-10T05:24:02;73964.28;;;-149.71;44.27
53916;BME280;39827;49.652;18.770;2023-05-10T05:26:28;73906.00;;;-149.71;43.10
53916;BME280;39827;49.652;18.770;2023-05-10T05:28:53;73855.78;;;-149.71;42.31
53916;BME280;39827;49.652;18.770;2023-05-10T05:31:20;73807.56;;;-149.71;41.16
53916;BME280;39827;49.652;18.770;2023-05-10T05:33:45;73749.31;;;-149.71;40.47
53916;BME280;39827;49.652;18.770;2023-05-10T05:36:11;73695.06;;;-149.71;39.16
53916;BME280;39827;49.652;18.770;2023-05-10T05:38:36;73662.94;;;-149.71;38.58
53916;BME280;39827;49.652;18.770;2023-05-10T05:41:02;73608.69;;;-149.71;38.50
53916;BME280;39827;49.652;18.770;2023-05-10T05:43:28;73554.47;;;-149.71;37.52
53916;BME280;39827;49.652;18.770;2023-05-10T05:45:54;73548.44;;;-149.71;36.80
53916;BME280;39827;49.652;18.770;2023-05-10T05:48:19;73480.13;;;-149.71;36.31
53916;BME280;39827;49.652;18.770;2023-05-10T05:50:45;73456.03;;;-149.71;36.55
53916;BME280;39827;49.652;18.770;2023-05-10T05:53:11;73417.88;;;-149.71;36.28
53916;BME280;39827;49.652;18.770;2023-05-10T05:55:36;73468.06;;;-149.71;36.69
53916;BME280;39827;49.652;18.770;2023-05-10T05:58:02;73409.81;;;-149.71;34.99
53916;BME280;39827;49.652;18.770;2023-05-10T06:00:27;73387.72;;;-149.71;34.96
53916;BME280;39827;49.652;18.770;2023-05-10T06:02:53;73343.53;;;-149.71;35.08
53916;BME280;39827;49.652;18.770;2023-05-10T06:05:18;73393.75;;;-149.71;34.55
53916;BME280;39827;49.652;18.770;2023-05-10T06:07:43;73419.88;;;-149.71;35.27
53916;BME280;39827;49.652;18.770;2023-05-10T06:10:09;73466.06;;;-149.71;35.75
53916;BME280;39827;49.652;18.770;2023-05-10T06:12:35;73413.84;;;-149.71;34.96
53916;BME280;39827;49.652;18.770;2023-05-10T06:15:01;73359.59;;;-149.71;34.41
53916;BME280;39827;49.652;18.770;2023-05-10T06:17:26;73309.38;;;-149.71;34.16
53916;BME280;39827;49.652;18.770;2023-05-10T06:19:52;73321.44;;;-149.71;33.64
53916;BME280;39827;49.652;18.770;2023-05-10T06:22:18;73365.63;;;-149.71;34.51
53916;BME280;39827;49.652;18.770;2023-05-10T06:24:43;73297.34;;;-149.71;34.48
53916;BME280;39827;49.652;18.770;2023-05-10T06:27:09;73409.81;;;-149.71;34.46
53916;BME280;39827;49.652;18.770;2023-05-10T06:29:34;73371.66;;;-149.71;34.32
53916;BME280;39827;49.652;18.770;2023-05-10T06:32:00;73341.53;;;-149.71;34.73
53916;BME280;39827;49.652;18.770;2023-05-10T06:34:25;73313.41;;;-149.71;33.76
53916;BME280;39827;49.652;18.770;2023-05-10T06:36:51;73303.38;;;-149.71;33.36
53916;BME280;39827;49.652;18.770;2023-05-10T06:39:17;73355.59;;;-149.71;34.34
53916;BME280;39827;49.652;18.770;2023-05-10T06:41:42;73337.50;;;-149.71;33.74
53916;BME280;39827;49.652;18.770;2023-05-10T06:44:08;73251.13;;;-149.71;33.38
53916;BME280;39827;49.652;18.770;2023-05-10T06:46:33;73255.16;;;-149.71;33.67
53916;BME280;39827;49.652;18.770;2023-05-10T06:48:59;73267.22;;;-149.71;33.57
53916;BME280;39827;49.652;18.770;2023-05-10T06:51:25;73265.19;;;-149.71;33.51
53916;BME280;39827;49.652;18.770;2023-05-10T06:53:51;73279.25;;;-149.71;34.43
53916;BME280;39827;49.652;18.770;2023-05-10T06:56:16;73255.16;;;-149.71;33.19
53916;BME280;39827;49.652;18.770;2023-05-10T06:58:42;73170.78;;;-149.71;32.50
53916;BME280;39827;49.652;18.770;2023-05-10T07:01:07;73210.97;;;-149.71;33.43
53916;BME280;39827;49.652;18.770;2023-05-10T07:03:33;73239.09;;;-149.71;33.08
53916;BME280;39827;49.652;18.770;2023-05-10T07:06:02;73196.91;;;-149.71;33.18
53916;BME280;39827;49.652;18.770;2023-05-10T07:08:35;73182.84;;;-149.71;34.42
53916;BME280;39827;49.652;18.770;2023-05-10T07:11:02;73108.53;;;-149.71;32.74
53916;BME280;39827;49.652;18.770;2023-05-10T07:13:32;73267.22;;;-149.71;33.08
53916;BME280;39827;49.652;18.770;2023-05-10T07:15:58;73204.94;;;-149.71;33.19
53916;BME280;39827;49.652;18.770;2023-05-10T07:18:23;73241.09;;;-149.71;33.15
53916;BME280;39827;49.652;18.770;2023-05-10T07:20:49;73134.63;;;-149.71;32.39
53916;BME280;39827;49.652;18.770;2023-05-10T07:23:14;73106.53;;;-149.71;31.71
53916;BME280;39827;49.652;18.770;2023-05-10T07:25:40;73114.56;;;-149.71;32.38
53916;BME280;39827;49.652;18.770;2023-05-10T07:28:05;73122.59;;;-149.71;33.25
53916;BME280;39827;49.652;18.770;2023-05-10T07:30:31;73154.72;;;-149.71;32.80
53916;BME280;39827;49.652;18.770;2023-05-10T07:32:56;73180.84;;;-149.71;32.84
53916;BME280;39827;49.652;18.770;2023-05-10T07:35:22;73146.69;;;-149.71;32.59
53916;BME280;39827;49.652;18.770;2023-05-10T07:37:47;73150.72;;;-149.71;32.26
53916;BME280;39827;49.652;18.770;2023-05-10T07:40:12;73094.47;;;-149.71;32.05
53916;BME280;39827;49.652;18.770;2023-05-10T07:42:38;72992.03;;;-149.71;31.79
53916;BME280;39827;49.652;18.770;2023-05-10T07:45:03;72903.66;;;-149.71;31.83
53916;BME280;39827;49.652;18.770;2023-05-10T07:47:29;72849.44;;;-149.71;31.71
53916;BME280;39827;49.652;18.770;2023-05-10T07:49:55;72953.88;;;-149.71;30.93
53916;BME280;39827;49.652;18.770;2023-05-10T07:52:20;73002.06;;;-149.71;31.46
53916;BME280;39827;49.652;18.770;2023-05-10T07:54:46;73052.28;;;-149.71;31.60
53916;BME280;39827;49.652;18.770;2023-05-10T07:57:11;72971.94;;;-149.71;31.28
53916;BME280;39827;49.652;18.770;2023-05-10T07:59:39;72965.94;;;-149.71;31.27
53916;BME280;39827;49.652;18.770;2023-05-10T08:02:05;72857.47;;;-149.71;31.70
53916;BME280;39827;49.652;18.770;2023-05-10T08:04:31;72909.69;;;-149.71;30.78
53916;BME280;39827;49.652;18.770;2023-05-10T08:06:56;72907.69;;;-149.71;30.69
53916;BME280;39827;49.652;18.770;2023-05-10T08:09:22;72909.69;;;-149.71;30.97
53916;BME280;39827;49.652;18.770;2023-05-10T08:11:49;72923.75;;;-149.71;30.75
53916;BME280;39827;49.652;18.770;2023-05-10T08:14:14;72929.78;;;-149.71;30.45
53916;BME280;39827;49.652;18.770;2023-05-10T08:16:40;73034.22;;;-149.71;31.18
53916;BME280;39827;49.652;18.770;2023-05-10T08:19:05;73042.25;;;-149.71;31.51
53916;BME280;39827;49.652;18.770;2023-05-10T08:21:31;72949.84;;;-149.71;31.21
53916;BME280;39827;49.652;18.770;2023-05-10T08:23:56;72951.88;;;-149.71;31.33
53916;BME280;39827;49.652;18.770;2023-05-10T08:26:21;72911.69;;;-149.71;31.57
53916;BME280;39827;49.652;18.770;2023-05-10T08:28:47;72837.38;;;-149.71;30.08
53916;BME280;39827;49.652;18.770;2023-05-10T08:31:12;73040.25;;;-149.71;30.66
53916;BME280;39827;49.652;18.770;2023-05-10T08:33:38;72889.59;;;-149.71;29.74
53916;BME280;39827;49.652;18.770;2023-05-10T08:36:03;72877.56;;;-149.71;29.59
53916;BME280;39827;49.652;18.770;2023-05-10T08:38:29;72843.41;;;-149.71;29.68
53916;BME280;39827;49.652;18.770;2023-05-10T08:40:55;72853.44;;;-149.71;29.80
53916;BME280;39827;49.652;18.770;2023-05-10T08:43:23;72817.31;;;-149.71;29.55
53916;BME280;39827;49.652;18.770;2023-05-10T08:45:53;72839.38;;;-149.71;29.27
53916;BME280;39827;49.652;18.770;2023-05-10T08:48:20;72913.69;;;-149.71;30.14
53916;BME280;39827;49.652;18.770;2023-05-10T08:50:48;72935.78;;;-149.71;30.73
53916;BME280;39827;49.652;18.770;2023-05-10T08:53:17;72845.41;;;-149.71;30.32
53916;BME280;39827;49.652;18.770;2023-05-10T08:55:44;72817.31;;;-149.71;29.29
53916;BME280;39827;49.652;18.770;2023-05-10T08:58:10;72797.22;;;-149.71;29.41
53916;BME280;39827;49.652;18.770;2023-05-10T09:00:36;72740.97;;;-149.71;29.56
53916;BME280;39827;49.652;18.770;2023-05-10T09:03:03;72797.22;;;-149.71;28.73
53916;BME280;39827;49.652;18.770;2023-05-10T09:05:29;72843.41;;;-149.71;29.60
53916;BME280;39827;49.652;18.770;2023-05-10T09:07:54;72843.41;;;-149.71;28.71
53916;BME280;39827;49.652;18.770;2023-05-10T09:10:20;72821.31;;;-149.71;28.78
53916;BME280;39827;49.652;18.770;2023-05-10T09:12:47;72807.25;;;-149.71;28.45
53916;BME280;39827;49.652;18.770;2023-05-10T09:15:15;72749.00;;;-149.71;29.10
53916;BME280;39827;49.652;18.770;2023-05-10T09:17:42;72879.56;;;-149.71;29.18
53916;BME280;39827;49.652;18.770;2023-05-10T09:20:09;72811.28;;;-149.71;28.86
53916;BME280;39827;49.652;18.770;2023-05-10T09:22:34;72751.03;;;-149.71;27.70
53916;BME280;39827;49.652;18.770;2023-05-10T09:25:09;72843.41;;;-149.71;28.86
53916;BME280;39827;49.652;18.770;2023-05-10T09:27:36;72799.22;;;-149.71;29.03
53916;BME280;39827;49.652;18.770;2023-05-10T09:30:03;72769.09;;;-149.71;28.49
53916;BME280;39827;49.652;18.770;2023-05-10T09:32:46;72833.38;;;-149.71;28.67
53916;BME280;39827;49.652;18.770;2023-05-10T09:35:14;72789.19;;;-149.71;29.23
53916;BME280;39827;49.652;18.770;2023-05-10T09:37:42;72560.22;;;-149.71;29.10
53916;BME280;39827;49.652;18.770;2023-05-10T09:40:12;72668.69;;;-149.71;27.76
53916;BME280;39827;49.652;18.770;2023-05-10T09:42:38;72777.13;;;-149.71;28.45
53916;BME280;39827;49.652;18.770;2023-05-10T09:45:04;72907.69;;;-149.71;29.00
53916;BME280;39827;49.652;18.770;2023-05-10T09:47:33;73030.19;;;-149.71;29.81
53916;BME280;39827;49.652;18.770;2023-05-10T09:50:00;73138.66;;;-149.71;31.48
53916;BME280;39827;49.652;18.770;2023-05-10T09:52:54;73086.44;;;-149.71;31.32
53916;BME280;39827;49.652;18.770;2023-05-10T09:55:25;73116.56;;;-149.71;31.80
53916;BME280;39827;49.652;18.770;2023-05-10T09:57:58;73026.19;;;-149.71;30.71
53916;BME280;39827;49.652;18.770;2023-05-10T10:00:25;73058.31;;;-149.71;30.62
53916;BME280;39827;49.652;18.770;2023-05-10T10:02:58;73074.38;;;-149.71;31.02
53916;BME280;39827;49.652;18.770;2023-05-10T10:05:35;73126.59;;;-149.71;31.31
53916;BME280;39827;49.652;18.770;2023-05-10T10:08:02;73118.56;;;-149.71;31.77
53916;BME280;39827;49.652;18.770;2023-05-10T10:10:28;73084.44;;;-149.71;31.78
53916;BME280;39827;49.652;18.770;2023-05-10T10:12:54;73062.34;;;-149.71;31.52
53916;BME280;39827;49.652;18.770;2023-05-10T10:15:21;73044.25;;;-149.71;30.90
53916;BME280;39827;49.652;18.770;2023-05-10T10:17:48;73082.41;;;-149.71;31.02
53916;BME280;39827;49.652;18.770;2023-05-10T10:20:14;73032.22;;;-149.71;31.21
53916;BME280;39827;49.652;18.770;2023-05-10T10:22:40;73070.38;;;-149.71;31.94
53916;BME280;39827;49.652;18.770;2023-05-10T10:25:07;73078.41;;;-149.71;30.81
53916;BME280;39827;49.652;18.770;2023-05-10T10:35:45;73024.16;;;-149.71;31.65
53916;BME280;39827;49.652;18.770;2023-05-10T10:38:12;73090.44;;;-149.71;31.27
53916;BME280;39827;49.652;18.770;2023-05-10T10:40:38;73016.13;;;-149.71;31.16
53916;BME280;39827;49.652;18.770;2023-05-10T10:43:29;72957.88;;;-149.71;30.48
53916;BME280;39827;49.652;18.770;2023-05-10T10:46:24;72953.88;;;-149.71;32.27
53916;BME280;39827;49.652;18.770;2023-05-10T10:49:08;73000.06;;;-149.71;31.22
53916;BME280;39827;49.652;18.770;2023-05-10T10:51:37;72998.06;;;-149.71;30.69
53916;BME280;39827;49.652;18.770;2023-05-10T10:54:10;72953.88;;;-149.71;31.42
53916;BME280;39827;49.652;18.770;2023-05-10T10:56:36;72909.69;;;-149.71;30.11
53916;BME280;39827;49.652;18.770;2023-05-10T10:59:01;72913.69;;;-149.71;30.49
53916;BME280;39827;49.652;18.770;2023-05-10T11:01:32;72895.63;;;-149.71;29.12
53916;BME280;39827;49.652;18.770;2023-05-10T11:06:34;72843.41;;;-149.71;29.36
53916;BME280;39827;49.652;18.770;2023-05-10T11:09:10;72857.47;;;-149.71;30.28
53916;BME280;39827;49.652;18.770;2023-05-10T11:11:49;72863.50;;;-149.71;29.38
53916;BME280;39827;49.652;18.770;2023-05-10T11:14:19;72859.47;;;-149.71;29.15
53916;BME280;39827;49.652;18.770;2023-05-10T11:16:45;72859.47;;;-149.71;29.98
53916;BME280;39827;49.652;18.770;2023-05-10T11:19:12;72909.69;;;-149.71;29.10
53916;BME280;39827;49.652;18.770;2023-05-10T11:21:50;72905.66;;;-149.71;29.47
53916;BME280;39827;49.652;18.770;2023-05-10T11:24:21;72925.75;;;-149.71;30.22
53916;BME280;39827;49.652;18.770;2023-05-10T11:26:50;72973.97;;;-149.71;30.92
53916;BME280;39827;49.652;18.770;2023-05-10T11:29:16;72982.00;;;-149.71;31.16
53916;BME280;39827;49.652;18.770;2023-05-10T11:31:45;72967.94;;;-149.71;31.15
53916;BME280;39827;49.652;18.770;2023-05-10T11:34:13;73034.22;;;-149.71;31.20
53916;BME280;39827;49.652;18.770;2023-05-10T11:36:51;73018.16;;;-149.71;31.78
53916;BME280;39827;49.652;18.770;2023-05-10T11:39:16;72982.00;;;-149.71;31.81
53916;BME280;39827;49.652;18.770;2023-05-10T11:41:42;72949.84;;;-149.71;31.83
53916;BME280;39827;49.652;18.770;2023-05-10T11:44:08;72925.75;;;-149.71;31.54
53916;BME280;39827;49.652;18.770;2023-05-10T11:46:34;72949.84;;;-149.71;31.43
53916;BME280;39827;49.652;18.770;2023-05-10T11:49:02;72977.97;;;-149.71;31.28
53916;BME280;39827;49.652;18.770;2023-05-10T11:51:32;72990.03;;;-149.71;30.88
53916;BME280;39827;49.652;18.770;2023-05-10T11:53:58;72961.91;;;-149.71;31.58
53916;BME280;39827;49.652;18.770;2023-05-10T11:56:24;72961.91;;;-149.71;32.59
53916;BME280;39827;49.652;18.770;2023-05-10T11:58:56;72977.97;;;-149.71;31.74
53916;BME280;39827;49.652;18.770;2023-05-10T12:01:22;73022.16;;;-149.71;31.65
53916;BME280;39827;49.652;18.770;2023-05-10T12:03:49;73092.47;;;-149.71;32.28
53916;BME280;39827;49.652;18.770;2023-05-10T12:06:15;73070.38;;;-149.71;32.40
53916;BME280;39827;49.652;18.770;2023-05-10T12:08:46;73068.34;;;-149.71;32.24
53916;BME280;39827;49.652;18.770;2023-05-10T12:11:13;73034.22;;;-149.71;31.74
53916;BME280;39827;49.652;18.770;2023-05-10T12:13:42;73008.09;;;-149.71;31.87
53916;BME280;39827;49.652;18.770;2023-05-10T12:16:24;72996.06;;;-149.71;32.40
53916;BME280;39827;49.652;18.770;2023-05-10T12:18:51;73040.25;;;-149.71;31.37
53916;BME280;39827;49.652;18.770;2023-05-10T12:21:18;72931.78;;;-149.71;31.29
53916;BME280;39827;49.652;18.770;2023-05-10T12:23:52;72921.75;;;-149.71;31.04
53916;BME280;39827;49.652;18.770;2023-05-10T12:26:21;72969.94;;;-149.71;31.48
53916;BME280;39827;49.652;18.770;2023-05-10T12:28:47;72969.94;;;-149.71;30.95
53916;BME280;39827;49.652;18.770;2023-05-10T12:31:12;72990.03;;;-149.71;30.79
53916;BME280;39827;49.652;18.770;2023-05-10T12:33:43;72973.97;;;-149.71;31.77
53916;BME280;39827;49.652;18.770;2023-05-10T12:36:12;72957.88;;;-149.71;31.14
53916;BME280;39827;49.652;18.770;2023-05-10T12:38:40;72939.81;;;-149.71;31.03
53916;BME280;39827;49.652;18.770;2023-05-10T12:41:17;72935.78;;;-149.71;31.33
53916;BME280;39827;49.652;18.770;2023-05-10T12:43:43;72949.84;;;-149.71;31.04
53916;BME280;39827;49.652;18.770;2023-05-10T12:48:37;72973.97;;;-149.71;30.42
53916;BME280;39827;49.652;18.770;2023-05-10T12:51:03;72992.03;;;-149.71;31.17
53916;BME280;39827;49.652;18.770;2023-05-10T12:53:28;72996.06;;;-149.71;31.12
53916;BME280;39827;49.652;18.770;2023-05-10T12:55:54;73034.22;;;-149.71;30.93
53916;BME280;39827;49.652;18.770;2023-05-10T12:58:19;73012.13;;;-149.71;31.65
53916;BME280;39827;49.652;18.770;2023-05-10T13:00:45;73006.09;;;-149.71;31.22